DTTA

Tunis Carthage International Airport

Tunis, Tunisia
METAR DTTA 172230Z 25004KT 200V280 CAVOK 25/18 Q1016 NOSIG
Observed Flight Rules
Jul-17 @ 22:30 UTC (49 minutes ago) Visual Flight Rules
Wind Visibility Clouds
250° at 4 knots 10,000+ meters
  • Clear skies
Temperatures Readings
Current 25°C / 77°F
Dewpoint 18°C / 64°F
Humidity 65%
Altimeter 30" Hg
Pressure 1016 hPa
Elevation 4
METAR DTTA 172230Z 25004KT 200V280 CAVOK 25/18 Q1016 NOSIG
Observed Flight Rules
Jul-17 @ 22:30 UTC
(49 minutes ago)
VFR
Wind Visibility
250° at 4 knots 10,000+ meters
Clouds
  • Clear skies
Temperature Dewpoint
25°C / 77°F 18°C / 64°F
Humidity Altimeter Pressure
65% 30" Hg 1016 hPa